sensor_id;sensor_type;location;lat;lon;timestamp;pressure;altitude;pressure_sealevel;temperature;humidity
68141;BME280;54941;52.220;104.306;2023-07-13T00:01:16;96179.03;;;16.42;77.40
68141;BME280;54941;52.220;104.306;2023-07-13T00:03:43;96177.00;;;16.28;77.03
68141;BME280;54941;52.220;104.306;2023-07-13T00:06:09;96181.56;;;16.26;76.96
68141;BME280;54941;52.220;104.306;2023-07-13T00:08:36;96184.44;;;16.03;78.28
68141;BME280;54941;52.220;104.306;2023-07-13T00:11:03;96186.25;;;16.40;76.92
68141;BME280;54941;52.220;104.306;2023-07-13T00:13:30;96196.78;;;16.24;77.65
68141;BME280;54941;52.220;104.306;2023-07-13T00:15:57;96194.53;;;16.34;77.54
68141;BME280;54941;52.220;104.306;2023-07-13T00:18:25;96199.84;;;16.53;75.92
68141;BME280;54941;52.220;104.306;2023-07-13T00:20:51;96198.41;;;16.64;76.10
68141;BME280;54941;52.220;104.306;2023-07-13T00:23:18;96201.59;;;16.73;75.46
68141;BME280;54941;52.220;104.306;2023-07-13T00:25:44;96198.69;;;16.77;75.70
68141;BME280;54941;52.220;104.306;2023-07-13T00:28:16;96204.09;;;16.95;74.71
68141;BME280;54941;52.220;104.306;2023-07-13T00:30:42;96187.91;;;16.98;74.99
68141;BME280;54941;52.220;104.306;2023-07-13T00:33:09;96205.63;;;16.81;74.48
68141;BME280;54941;52.220;104.306;2023-07-13T00:35:37;96204.63;;;17.01;73.71
68141;BME280;54941;52.220;104.306;2023-07-13T00:38:03;96211.09;;;16.78;74.83
68141;BME280;54941;52.220;104.306;2023-07-13T00:40:29;96212.38;;;16.88;74.48
68141;BME280;54941;52.220;104.306;2023-07-13T00:42:58;96219.00;;;16.99;74.51
68141;BME280;54941;52.220;104.306;2023-07-13T00:48:34;96222.13;;;17.26;73.05
68141;BME280;54941;52.220;104.306;2023-07-13T00:51:03;96222.00;;;16.92;74.21
68141;BME280;54941;52.220;104.306;2023-07-13T00:53:31;96220.06;;;17.31;73.09
68141;BME280;54941;52.220;104.306;2023-07-13T00:55:59;96214.25;;;17.23;72.36
68141;BME280;54941;52.220;104.306;2023-07-13T00:58:26;96214.47;;;17.35;71.49
68141;BME280;54941;52.220;104.306;2023-07-13T01:00:52;96213.41;;;17.39;70.94
68141;BME280;54941;52.220;104.306;2023-07-13T01:03:19;96221.72;;;17.33;71.59
68141;BME280;54941;52.220;104.306;2023-07-13T01:05:48;96211.44;;;17.26;71.39
68141;BME280;54941;52.220;104.306;2023-07-13T01:08:16;96215.44;;;17.17;71.52
68141;BME280;54941;52.220;104.306;2023-07-13T01:10:51;96219.69;;;17.56;70.87
68141;BME280;54941;52.220;104.306;2023-07-13T01:13:17;96218.66;;;17.58;69.88
68141;BME280;54941;52.220;104.306;2023-07-13T01:15:45;96217.34;;;17.49;69.83
68141;BME280;54941;52.220;104.306;2023-07-13T01:18:15;96216.19;;;17.72;69.77
68141;BME280;54941;52.220;104.306;2023-07-13T01:20:48;96222.06;;;17.62;70.15
68141;BME280;54941;52.220;104.306;2023-07-13T01:23:14;96231.53;;;17.67;70.08
68141;BME280;54941;52.220;104.306;2023-07-13T01:25:41;96225.13;;;18.22;68.67
68141;BME280;54941;52.220;104.306;2023-07-13T01:28:08;96229.81;;;18.34;66.55
68141;BME280;54941;52.220;104.306;2023-07-13T01:30:35;96226.38;;;18.32;66.92
68141;BME280;54941;52.220;104.306;2023-07-13T01:33:01;96233.91;;;18.57;65.78
68141;BME280;54941;52.220;104.306;2023-07-13T01:35:28;96225.75;;;18.76;65.30
68141;BME280;54941;52.220;104.306;2023-07-13T01:37:56;96226.16;;;18.52;65.54
68141;BME280;54941;52.220;104.306;2023-07-13T01:40:22;96215.38;;;19.01;63.76
68141;BME280;54941;52.220;104.306;2023-07-13T01:42:49;96228.66;;;18.87;64.41
68141;BME280;54941;52.220;104.306;2023-07-13T01:45:15;96235.31;;;18.95;64.55
68141;BME280;54941;52.220;104.306;2023-07-13T01:47:42;96226.28;;;18.49;65.82
68141;BME280;54941;52.220;104.306;2023-07-13T01:50:09;96221.47;;;19.19;63.62
68141;BME280;54941;52.220;104.306;2023-07-13T01:52:35;96224.47;;;19.29;62.84
68141;BME280;54941;52.220;104.306;2023-07-13T01:55:04;96223.09;;;19.67;61.04
68141;BME280;54941;52.220;104.306;2023-07-13T01:57:30;96229.19;;;19.85;60.63
68141;BME280;54941;52.220;104.306;2023-07-13T01:59:56;96231.28;;;20.38;59.59
68141;BME280;54941;52.220;104.306;2023-07-13T02:02:23;96234.47;;;21.01;57.67
68141;BME280;54941;52.220;104.306;2023-07-13T02:04:49;96232.25;;;21.61;55.35
68141;BME280;54941;52.220;104.306;2023-07-13T02:07:15;96232.25;;;21.61;54.93
68141;BME280;54941;52.220;104.306;2023-07-13T02:09:42;96229.56;;;21.61;54.49
68141;BME280;54941;52.220;104.306;2023-07-13T02:12:10;96226.94;;;21.99;53.76
68141;BME280;54941;52.220;104.306;2023-07-13T02:14:36;96233.91;;;21.37;54.68
68141;BME280;54941;52.220;104.306;2023-07-13T02:17:04;96250.19;;;19.93;58.84
68141;BME280;54941;52.220;104.306;2023-07-13T02:19:31;96239.00;;;20.86;56.40
68141;BME280;54941;52.220;104.306;2023-07-13T02:21:57;96238.69;;;20.49;56.72
68141;BME280;54941;52.220;104.306;2023-07-13T02:24:23;96240.53;;;20.90;56.19
68141;BME280;54941;52.220;104.306;2023-07-13T02:26:50;96244.47;;;20.42;57.55
68141;BME280;54941;52.220;104.306;2023-07-13T02:29:18;96233.16;;;20.79;57.03
68141;BME280;54941;52.220;104.306;2023-07-13T02:31:44;96243.72;;;20.68;56.38
68141;BME280;54941;52.220;104.306;2023-07-13T02:34:10;96244.19;;;19.73;58.39
68141;BME280;54941;52.220;104.306;2023-07-13T02:36:37;96251.72;;;19.97;57.57
68141;BME280;54941;52.220;104.306;2023-07-13T02:39:05;96246.72;;;21.05;55.71
68141;BME280;54941;52.220;104.306;2023-07-13T02:41:32;96235.50;;;22.69;51.20
68141;BME280;54941;52.220;104.306;2023-07-13T02:43:58;96221.28;;;24.68;46.67
68141;BME280;54941;52.220;104.306;2023-07-13T02:46:26;96230.22;;;25.36;44.14
68141;BME280;54941;52.220;104.306;2023-07-13T02:48:53;96231.75;;;23.56;47.88
68141;BME280;54941;52.220;104.306;2023-07-13T02:51:19;96228.34;;;23.31;48.29
68141;BME280;54941;52.220;104.306;2023-07-13T02:53:45;96229.72;;;22.99;48.76
68141;BME280;54941;52.220;104.306;2023-07-13T02:56:12;96222.94;;;23.54;47.81
68141;BME280;54941;52.220;104.306;2023-07-13T02:58:38;96229.16;;;25.05;44.76
68141;BME280;54941;52.220;104.306;2023-07-13T03:01:06;96214.63;;;26.86;40.23
68141;BME280;54941;52.220;104.306;2023-07-13T03:03:35;96223.94;;;26.00;42.09
68141;BME280;54941;52.220;104.306;2023-07-13T03:06:03;96221.16;;;27.04;39.15
68141;BME280;54941;52.220;104.306;2023-07-13T03:08:29;96219.03;;;27.86;38.07
68141;BME280;54941;52.220;104.306;2023-07-13T03:11:00;96212.72;;;26.04;40.69
68141;BME280;54941;52.220;104.306;2023-07-13T03:13:26;96208.56;;;25.36;42.95
68141;BME280;54941;52.220;104.306;2023-07-13T03:15:52;96215.13;;;25.11;42.67
68141;BME280;54941;52.220;104.306;2023-07-13T03:18:19;96213.97;;;24.24;45.23
68141;BME280;54941;52.220;104.306;2023-07-13T03:20:47;96212.06;;;24.49;45.61
68141;BME280;54941;52.220;104.306;2023-07-13T03:23:15;96209.94;;;25.30;43.99
68141;BME280;54941;52.220;104.306;2023-07-13T03:25:42;96224.84;;;25.14;44.19
68141;BME280;54941;52.220;104.306;2023-07-13T03:28:08;96220.66;;;23.96;45.10
68141;BME280;54941;52.220;104.306;2023-07-13T03:30:34;96220.78;;;22.99;47.98
68141;BME280;54941;52.220;104.306;2023-07-13T03:33:01;96225.81;;;22.41;50.57
68141;BME280;54941;52.220;104.306;2023-07-13T03:35:27;96226.38;;;21.69;53.59
68141;BME280;54941;52.220;104.306;2023-07-13T03:37:55;96217.78;;;22.91;50.05
68141;BME280;54941;52.220;104.306;2023-07-13T03:40:21;96212.25;;;23.53;48.75
68141;BME280;54941;52.220;104.306;2023-07-13T03:42:48;96213.53;;;24.53;46.49
68141;BME280;54941;52.220;104.306;2023-07-13T03:45:14;96196.88;;;26.00;41.42
68141;BME280;54941;52.220;104.306;2023-07-13T03:47:40;96197.28;;;26.37;39.98
68141;BME280;54941;52.220;104.306;2023-07-13T03:50:08;96189.94;;;27.10;38.80
68141;BME280;54941;52.220;104.306;2023-07-13T03:52:34;96190.31;;;27.74;37.18
68141;BME280;54941;52.220;104.306;2023-07-13T03:55:02;96181.38;;;27.14;38.59
68141;BME280;54941;52.220;104.306;2023-07-13T03:57:31;96194.16;;;27.62;37.17
68141;BME280;54941;52.220;104.306;2023-07-13T03:59:57;96189.53;;;28.50;34.27
68141;BME280;54941;52.220;104.306;2023-07-13T04:02:23;96180.31;;;28.04;35.80
68141;BME280;54941;52.220;104.306;2023-07-13T04:04:50;96189.31;;;27.66;35.47
68141;BME280;54941;52.220;104.306;2023-07-13T04:07:16;96187.75;;;27.03;37.29
68141;BME280;54941;52.220;104.306;2023-07-13T04:09:42;96180.50;;;26.22;39.32
68141;BME280;54941;52.220;104.306;2023-07-13T04:12:10;96180.13;;;26.97;36.98
68141;BME280;54941;52.220;104.306;2023-07-13T04:14:37;96180.84;;;27.49;35.21
68141;BME280;54941;52.220;104.306;2023-07-13T04:17:04;96178.50;;;26.45;37.26
68141;BME280;54941;52.220;104.306;2023-07-13T04:19:30;96172.50;;;26.21;37.90
68141;BME280;54941;52.220;104.306;2023-07-13T04:21:57;96192.78;;;24.76;41.65
68141;BME280;54941;52.220;104.306;2023-07-13T04:24:23;96194.19;;;24.12;43.19
68141;BME280;54941;52.220;104.306;2023-07-13T04:26:49;96188.41;;;24.06;43.47
68141;BME280;54941;52.220;104.306;2023-07-13T04:29:17;96186.06;;;23.31;44.75
68141;BME280;54941;52.220;104.306;2023-07-13T04:31:43;96174.75;;;24.31;42.13
68141;BME280;54941;52.220;104.306;2023-07-13T04:34:10;96181.34;;;24.27;43.53
68141;BME280;54941;52.220;104.306;2023-07-13T04:36:36;96175.84;;;25.39;42.73
68141;BME280;54941;52.220;104.306;2023-07-13T04:39:02;96173.66;;;25.97;40.12
68141;BME280;54941;52.220;104.306;2023-07-13T04:41:29;96164.25;;;26.01;39.37
68141;BME280;54941;52.220;104.306;2023-07-13T04:43:55;96172.16;;;23.83;40.68
68141;BME280;54941;52.220;104.306;2023-07-13T04:46:23;96179.41;;;22.38;44.97
68141;BME280;54941;52.220;104.306;2023-07-13T04:48:50;96170.69;;;23.20;44.04
68141;BME280;54941;52.220;104.306;2023-07-13T04:51:16;96161.00;;;23.42;44.29
68141;BME280;54941;52.220;104.306;2023-07-13T04:53:43;96169.22;;;23.16;44.38
68141;BME280;54941;52.220;104.306;2023-07-13T04:56:09;96165.13;;;24.16;41.14
68141;BME280;54941;52.220;104.306;2023-07-13T04:58:36;96166.09;;;24.04;42.72
68141;BME280;54941;52.220;104.306;2023-07-13T05:01:03;96159.13;;;23.66;42.75
68141;BME280;54941;52.220;104.306;2023-07-13T05:03:32;96162.03;;;23.87;42.33
68141;BME280;54941;52.220;104.306;2023-07-13T05:06:00;96153.50;;;23.69;42.27
68141;BME280;54941;52.220;104.306;2023-07-13T05:08:27;96148.69;;;23.38;43.17
68141;BME280;54941;52.220;104.306;2023-07-13T05:10:53;96152.41;;;23.72;42.99
68141;BME280;54941;52.220;104.306;2023-07-13T05:13:20;96147.78;;;23.85;42.00
68141;BME280;54941;52.220;104.306;2023-07-13T05:15:52;96149.13;;;23.91;42.32
68141;BME280;54941;52.220;104.306;2023-07-13T05:18:21;96146.78;;;23.75;43.22
68141;BME280;54941;52.220;104.306;2023-07-13T05:20:56;96136.78;;;24.10;40.92
68141;BME280;54941;52.220;104.306;2023-07-13T05:23:23;96137.06;;;22.89;42.59
68141;BME280;54941;52.220;104.306;2023-07-13T05:25:49;96133.53;;;23.13;42.43
68141;BME280;54941;52.220;104.306;2023-07-13T05:28:15;96136.44;;;23.34;42.20
68141;BME280;54941;52.220;104.306;2023-07-13T05:30:45;96127.72;;;23.30;42.07
68141;BME280;54941;52.220;104.306;2023-07-13T05:33:11;96125.63;;;22.98;43.31
68141;BME280;54941;52.220;104.306;2023-07-13T05:35:38;96124.00;;;23.20;43.55
68141;BME280;54941;52.220;104.306;2023-07-13T05:38:06;96125.97;;;22.94;43.03
68141;BME280;54941;52.220;104.306;2023-07-13T05:40:32;96127.44;;;23.22;43.40
68141;BME280;54941;52.220;104.306;2023-07-13T05:42:58;96127.03;;;23.63;42.07
68141;BME280;54941;52.220;104.306;2023-07-13T05:45:25;96121.81;;;23.01;42.70
68141;BME280;54941;52.220;104.306;2023-07-13T05:47:51;96122.38;;;22.57;42.88
68141;BME280;54941;52.220;104.306;2023-07-13T05:50:18;96114.88;;;22.49;43.12
68141;BME280;54941;52.220;104.306;2023-07-13T05:52:44;96110.66;;;23.18;43.12
68141;BME280;54941;52.220;104.306;2023-07-13T05:55:12;96106.13;;;23.54;42.05
68141;BME280;54941;52.220;104.306;2023-07-13T05:57:39;96119.59;;;22.58;44.96
68141;BME280;54941;52.220;104.306;2023-07-13T06:00:06;96105.94;;;23.09;44.49
68141;BME280;54941;52.220;104.306;2023-07-13T06:02:33;96102.69;;;24.09;42.87
68141;BME280;54941;52.220;104.306;2023-07-13T06:04:59;96106.97;;;24.01;41.07
68141;BME280;54941;52.220;104.306;2023-07-13T06:07:25;96103.25;;;23.79;39.08
68141;BME280;54941;52.220;104.306;2023-07-13T06:09:51;96097.63;;;24.05;38.65
68141;BME280;54941;52.220;104.306;2023-07-13T06:12:19;96097.16;;;24.22;38.44
68141;BME280;54941;52.220;104.306;2023-07-13T06:14:46;96096.75;;;23.93;40.87
68141;BME280;54941;52.220;104.306;2023-07-13T06:17:12;96099.63;;;23.56;41.31
68141;BME280;54941;52.220;104.306;2023-07-13T06:19:38;96093.59;;;24.55;40.88
68141;BME280;54941;52.220;104.306;2023-07-13T06:22:05;96079.41;;;25.28;39.10
68141;BME280;54941;52.220;104.306;2023-07-13T06:24:31;96085.13;;;25.35;37.59
68141;BME280;54941;52.220;104.306;2023-07-13T06:26:58;96081.47;;;24.93;37.62
68141;BME280;54941;52.220;104.306;2023-07-13T06:29:26;96081.97;;;24.87;36.88
68141;BME280;54941;52.220;104.306;2023-07-13T06:31:52;96084.53;;;24.56;38.25
68141;BME280;54941;52.220;104.306;2023-07-13T06:34:18;96080.81;;;24.68;38.55
68141;BME280;54941;52.220;104.306;2023-07-13T06:36:45;96085.22;;;24.69;38.18
68141;BME280;54941;52.220;104.306;2023-07-13T06:39:11;96097.38;;;24.19;39.27
68141;BME280;54941;52.220;104.306;2023-07-13T06:41:37;96081.44;;;24.27;39.33
68141;BME280;54941;52.220;104.306;2023-07-13T06:44:04;96081.94;;;23.88;39.87
68141;BME280;54941;52.220;104.306;2023-07-13T06:46:32;96074.31;;;24.15;40.96
68141;BME280;54941;52.220;104.306;2023-07-13T06:48:58;96076.66;;;24.31;40.12
68141;BME280;54941;52.220;104.306;2023-07-13T06:51:24;96077.75;;;24.28;39.39
68141;BME280;54941;52.220;104.306;2023-07-13T06:53:51;96086.59;;;24.19;39.43
68141;BME280;54941;52.220;104.306;2023-07-13T06:56:17;96072.59;;;23.92;39.59
68141;BME280;54941;52.220;104.306;2023-07-13T06:58:44;96072.00;;;24.10;39.24
68141;BME280;54941;52.220;104.306;2023-07-13T07:01:10;96068.56;;;24.42;39.54
68141;BME280;54941;52.220;104.306;2023-07-13T07:03:38;96064.16;;;23.85;40.86
68141;BME280;54941;52.220;104.306;2023-07-13T07:06:13;96063.31;;;23.49;40.93
68141;BME280;54941;52.220;104.306;2023-07-13T07:08:39;96054.13;;;22.82;41.99
68141;BME280;54941;52.220;104.306;2023-07-13T07:11:05;96059.66;;;23.15;41.16
68141;BME280;54941;52.220;104.306;2023-07-13T07:13:32;96050.09;;;23.11;40.07
68141;BME280;54941;52.220;104.306;2023-07-13T07:15:58;96052.16;;;23.43;40.01
68141;BME280;54941;52.220;104.306;2023-07-13T07:18:25;96058.22;;;23.22;40.46
68141;BME280;54941;52.220;104.306;2023-07-13T07:20:52;96046.25;;;23.03;41.69
68141;BME280;54941;52.220;104.306;2023-07-13T07:23:19;96039.75;;;22.94;41.52
68141;BME280;54941;52.220;104.306;2023-07-13T07:25:45;96038.31;;;23.47;40.85
68141;BME280;54941;52.220;104.306;2023-07-13T07:28:12;96033.38;;;23.76;41.06
68141;BME280;54941;52.220;104.306;2023-07-13T07:30:41;96038.50;;;23.91;40.70
68141;BME280;54941;52.220;104.306;2023-07-13T07:33:08;96043.91;;;24.24;40.23
68141;BME280;54941;52.220;104.306;2023-07-13T07:35:34;96038.38;;;24.26;38.35
68141;BME280;54941;52.220;104.306;2023-07-13T07:38:02;96037.28;;;23.83;38.93
68141;BME280;54941;52.220;104.306;2023-07-13T07:40:28;96031.13;;;24.15;39.92
68141;BME280;54941;52.220;104.306;2023-07-13T07:42:55;96033.25;;;23.89;38.49
68141;BME280;54941;52.220;104.306;2023-07-13T07:45:21;96039.00;;;24.07;40.32
68141;BME280;54941;52.220;104.306;2023-07-13T07:47:48;96036.81;;;24.01;38.35
68141;BME280;54941;52.220;104.306;2023-07-13T07:50:14;96033.00;;;24.03;36.41
68141;BME280;54941;52.220;104.306;2023-07-13T07:52:40;96032.72;;;23.84;36.51
68141;BME280;54941;52.220;104.306;2023-07-13T07:55:09;96028.19;;;23.84;37.61
68141;BME280;54941;52.220;104.306;2023-07-13T07:57:35;96028.56;;;23.91;37.49
68141;BME280;54941;52.220;104.306;2023-07-13T08:00:01;96016.53;;;23.84;36.44
68141;BME280;54941;52.220;104.306;2023-07-13T08:02:31;96024.28;;;23.77;38.27
68141;BME280;54941;52.220;104.306;2023-07-13T08:04:57;96016.31;;;23.76;38.89
68141;BME280;54941;52.220;104.306;2023-07-13T08:07:24;96004.03;;;23.94;40.03
68141;BME280;54941;52.220;104.306;2023-07-13T08:09:52;96000.25;;;23.85;38.52
68141;BME280;54941;52.220;104.306;2023-07-13T08:12:20;95997.91;;;23.70;38.59
68141;BME280;54941;52.220;104.306;2023-07-13T08:14:50;95998.91;;;23.91;38.34
68141;BME280;54941;52.220;104.306;2023-07-13T08:17:16;95998.66;;;23.83;39.50
68141;BME280;54941;52.220;104.306;2023-07-13T08:19:42;96008.97;;;23.89;39.17
68141;BME280;54941;52.220;104.306;2023-07-13T08:22:09;96002.44;;;23.80;39.17
68141;BME280;54941;52.220;104.306;2023-07-13T08:24:35;96003.44;;;23.68;38.20
68141;BME280;54941;52.220;104.306;2023-07-13T08:27:01;96000.00;;;23.66;39.43
68141;BME280;54941;52.220;104.306;2023-07-13T08:29:29;96003.69;;;23.76;39.00
68141;BME280;54941;52.220;104.306;2023-07-13T08:31:57;96008.63;;;23.36;38.85
68141;BME280;54941;52.220;104.306;2023-07-13T08:34:23;96010.66;;;23.68;38.75
68141;BME280;54941;52.220;104.306;2023-07-13T08:36:50;95999.41;;;23.85;38.27
68141;BME280;54941;52.220;104.306;2023-07-13T08:39:16;96003.31;;;24.03;37.54
68141;BME280;54941;52.220;104.306;2023-07-13T08:41:44;95996.78;;;24.17;37.31
68141;BME280;54941;52.220;104.306;2023-07-13T08:44:24;96004.09;;;23.48;39.03
68141;BME280;54941;52.220;104.306;2023-07-13T08:46:56;96005.53;;;23.18;39.32
68141;BME280;54941;52.220;104.306;2023-07-13T08:49:24;96005.75;;;23.15;39.87
68141;BME280;54941;52.220;104.306;2023-07-13T08:51:55;96013.13;;;23.24;38.27
68141;BME280;54941;52.220;104.306;2023-07-13T08:54:27;96007.66;;;23.37;38.05
68141;BME280;54941;52.220;104.306;2023-07-13T08:56:56;96001.53;;;23.46;38.29
68141;BME280;54941;52.220;104.306;2023-07-13T08:59:26;95999.84;;;22.99;38.97
68141;BME280;54941;52.220;104.306;2023-07-13T09:02:05;96003.34;;;22.88;39.36
68141;BME280;54941;52.220;104.306;2023-07-13T09:04:37;96000.28;;;22.58;40.67
68141;BME280;54941;52.220;104.306;2023-07-13T09:07:14;96002.25;;;22.91;39.82
68141;BME280;54941;52.220;104.306;2023-07-13T09:09:54;96002.22;;;23.26;39.37
68141;BME280;54941;52.220;104.306;2023-07-13T09:12:26;95997.09;;;23.23;39.06
68141;BME280;54941;52.220;104.306;2023-07-13T09:14:57;95993.38;;;23.59;38.26
68141;BME280;54941;52.220;104.306;2023-07-13T09:17:29;95991.59;;;23.36;38.76
68141;BME280;54941;52.220;104.306;2023-07-13T09:19:59;95993.97;;;23.51;39.31
68141;BME280;54941;52.220;104.306;2023-07-13T09:22:27;95995.84;;;23.62;38.75
68141;BME280;54941;52.220;104.306;2023-07-13T09:25:00;95999.16;;;23.19;38.02
68141;BME280;54941;52.220;104.306;2023-07-13T09:27:35;95996.44;;;23.08;38.26
68141;BME280;54941;52.220;104.306;2023-07-13T09:30:27;95987.13;;;23.12;38.39
68141;BME280;54941;52.220;104.306;2023-07-13T09:32:58;95991.75;;;22.99;38.61
68141;BME280;54941;52.220;104.306;2023-07-13T09:35:27;95983.31;;;22.92;40.28
68141;BME280;54941;52.220;104.306;2023-07-13T09:37:58;95980.56;;;23.16;39.87
68141;BME280;54941;52.220;104.306;2023-07-13T09:40:30;95982.22;;;22.95;40.50
68141;BME280;54941;52.220;104.306;2023-07-13T09:43:01;95981.75;;;23.12;39.81
68141;BME280;54941;52.220;104.306;2023-07-13T09:45:29;95976.59;;;23.09;39.49
68141;BME280;54941;52.220;104.306;2023-07-13T09:48:05;95979.56;;;23.17;39.08
68141;BME280;54941;52.220;104.306;2023-07-13T09:50:32;95977.34;;;23.11;39.63
68141;BME280;54941;52.220;104.306;2023-07-13T09:53:01;95975.09;;;22.94;39.19
68141;BME280;54941;52.220;104.306;2023-07-13T09:55:30;95980.50;;;22.94;39.76
68141;BME280;54941;52.220;104.306;2023-07-13T09:57:57;95971.91;;;23.00;38.88
68141;BME280;54941;52.220;104.306;2023-07-13T10:00:26;95968.09;;;22.91;39.86
68141;BME280;54941;52.220;104.306;2023-07-13T10:03:01;95972.16;;;22.97;39.60
68141;BME280;54941;52.220;104.306;2023-07-13T10:05:28;95975.09;;;22.94;39.31
68141;BME280;54941;52.220;104.306;2023-07-13T10:08:03;95968.25;;;23.01;38.65
68141;BME280;54941;52.220;104.306;2023-07-13T10:10:29;95963.56;;;22.92;39.63
68141;BME280;54941;52.220;104.306;2023-07-13T10:12:56;95971.31;;;22.96;39.95
68141;BME280;54941;52.220;104.306;2023-07-13T10:15:24;95967.25;;;22.91;40.76
68141;BME280;54941;52.220;104.306;2023-07-13T10:17:53;95968.13;;;23.03;40.25
68141;BME280;54941;52.220;104.306;2023-07-13T10:20:22;95979.97;;;22.89;41.52
68141;BME280;54941;52.220;104.306;2023-07-13T10:22:53;95972.53;;;23.04;40.81
68141;BME280;54941;52.220;104.306;2023-07-13T10:25:23;95974.59;;;22.89;41.16
68141;BME280;54941;52.220;104.306;2023-07-13T10:27:52;95976.34;;;22.77;41.07
68141;BME280;54941;52.220;104.306;2023-07-13T10:30:21;95968.09;;;22.67;39.85
68141;BME280;54941;52.220;104.306;2023-07-13T10:32:48;95970.53;;;22.83;38.90
68141;BME280;54941;52.220;104.306;2023-07-13T10:35:16;95969.78;;;22.81;39.47
68141;BME280;54941;52.220;104.306;2023-07-13T10:37:48;95963.63;;;22.79;39.79
68141;BME280;54941;52.220;104.306;2023-07-13T10:40:20;95966.13;;;22.58;40.46
68141;BME280;54941;52.220;104.306;2023-07-13T10:42:51;95964.75;;;22.53;40.12
68141;BME280;54941;52.220;104.306;2023-07-13T10:45:21;95960.38;;;22.63;40.62
68141;BME280;54941;52.220;104.306;2023-07-13T10:47:49;95959.94;;;22.80;40.59
68141;BME280;54941;52.220;104.306;2023-07-13T10:50:20;95957.44;;;22.66;40.69
68141;BME280;54941;52.220;104.306;2023-07-13T10:52:50;95960.16;;;22.42;41.66
68141;BME280;54941;52.220;104.306;2023-07-13T10:55:37;95954.09;;;22.27;41.19
68141;BME280;54941;52.220;104.306;2023-07-13T10:58:12;95952.34;;;22.39;40.79
68141;BME280;54941;52.220;104.306;2023-07-13T11:00:49;95949.09;;;22.34;40.20
68141;BME280;54941;52.220;104.306;2023-07-13T11:03:20;95950.94;;;22.33;39.93
68141;BME280;54941;52.220;104.306;2023-07-13T11:05:49;95943.69;;;22.47;40.78
68141;BME280;54941;52.220;104.306;2023-07-13T11:08:20;95947.06;;;22.37;40.92
68141;BME280;54941;52.220;104.306;2023-07-13T11:10:58;95953.56;;;22.22;41.13
68141;BME280;54941;52.220;104.306;2023-07-13T11:13:56;95951.00;;;22.21;41.57
68141;BME280;54941;52.220;104.306;2023-07-13T11:16:37;95951.66;;;22.24;42.28
68141;BME280;54941;52.220;104.306;2023-07-13T11:19:40;95953.25;;;22.27;41.72
68141;BME280;54941;52.220;104.306;2023-07-13T11:22:17;95957.03;;;22.24;41.83
68141;BME280;54941;52.220;104.306;2023-07-13T11:25:00;95959.44;;;22.03;42.68
68141;BME280;54941;52.220;104.306;2023-07-13T11:27:35;95963.53;;;21.96;43.45
68141;BME280;54941;52.220;104.306;2023-07-13T11:30:21;95964.28;;;22.11;43.02
68141;BME280;54941;52.220;104.306;2023-07-13T11:32:52;95959.53;;;22.15;43.54
68141;BME280;54941;52.220;104.306;2023-07-13T11:35:28;95961.41;;;22.01;43.80
68141;BME280;54941;52.220;104.306;2023-07-13T11:37:54;95960.09;;;22.07;43.59
68141;BME280;54941;52.220;104.306;2023-07-13T11:40:26;95965.38;;;21.96;43.15
68141;BME280;54941;52.220;104.306;2023-07-13T11:42:59;95970.69;;;21.84;42.71
68141;BME280;54941;52.220;104.306;2023-07-13T11:45:26;95957.97;;;21.87;42.98
68141;BME280;54941;52.220;104.306;2023-07-13T11:47:52;95963.81;;;21.80;42.68
68141;BME280;54941;52.220;104.306;2023-07-13T11:50:19;95968.13;;;21.70;43.49
68141;BME280;54941;52.220;104.306;2023-07-13T11:52:46;95973.72;;;21.80;43.35
68141;BME280;54941;52.220;104.306;2023-07-13T11:55:15;95973.50;;;21.70;44.08
68141;BME280;54941;52.220;104.306;2023-07-13T11:57:47;95985.47;;;21.66;44.10
68141;BME280;54941;52.220;104.306;2023-07-13T12:00:18;95989.22;;;21.64;44.67
68141;BME280;54941;52.220;104.306;2023-07-13T12:02:47;95987.97;;;21.44;46.54
68141;BME280;54941;52.220;104.306;2023-07-13T12:05:15;95989.69;;;21.32;46.90
68141;BME280;54941;52.220;104.306;2023-07-13T12:07:42;95988.16;;;21.28;48.09
68141;BME280;54941;52.220;104.306;2023-07-13T12:10:18;95994.03;;;21.08;49.59
68141;BME280;54941;52.220;104.306;2023-07-13T12:12:51;95992.09;;;20.84;51.48
68141;BME280;54941;52.220;104.306;2023-07-13T12:15:18;95986.38;;;20.76;51.04
68141;BME280;54941;52.220;104.306;2023-07-13T12:17:45;95988.09;;;20.77;53.14
68141;BME280;54941;52.220;104.306;2023-07-13T12:20:20;95994.19;;;20.25;56.48
68141;BME280;54941;52.220;104.306;2023-07-13T12:22:47;95997.84;;;19.97;59.39
68141;BME280;54941;52.220;104.306;2023-07-13T12:25:14;95993.66;;;19.93;57.75
68141;BME280;54941;52.220;104.306;2023-07-13T12:27:41;95984.56;;;19.81;59.91
68141;BME280;54941;52.220;104.306;2023-07-13T12:30:24;95986.78;;;19.61;59.57
68141;BME280;54941;52.220;104.306;2023-07-13T12:32:56;95984.44;;;19.54;59.38
68141;BME280;54941;52.220;104.306;2023-07-13T12:35:24;95994.22;;;19.41;59.19
68141;BME280;54941;52.220;104.306;2023-07-13T12:37:51;95987.63;;;19.18;60.17
68141;BME280;54941;52.220;104.306;2023-07-13T12:40:19;95989.91;;;19.10;61.22
68141;BME280;54941;52.220;104.306;2023-07-13T12:42:47;95987.94;;;18.84;64.74
68141;BME280;54941;52.220;104.306;2023-07-13T12:45:21;95980.78;;;18.54;65.47
68141;BME280;54941;52.220;104.306;2023-07-13T12:47:56;95986.25;;;18.37;66.61
68141;BME280;54941;52.220;104.306;2023-07-13T12:50:27;95990.72;;;18.06;68.53